Aérodrome :
LOGIN :

S'inscrire | Disclaimer

   EN    FR    IT 

 










Légende :    VFR   VFR Marginal   IFR   IFR Intensif   IFR Très Intensif
Visi : 
Plafond : 
>= 8 km
>= 3000ft
5 à 8 km
1000 à 3000 ft
1500m à 5 km
500 à 1000 ft
800 à 1500m
200 à 500 ft
< 800m
< 200 ft
Symboles :   Orages  Brouillard  Fortes neiges  Fortes précipitations  Vent > 20 kt
SIGMETs :   Divers  Orages  Givrage  Turbulence  Onde Orograph.  Cendres Volcan.






- Altitude de l'aérodrome : 466 ft


LHPA - Pápa

DERNIER METAR :
  • 280545Z 20010KT 9999 SCT015 OVC083 03/02 Q1007 TEMPO -RA RMK BLU

METARs EXPIRÉS :
  • 280515Z 19010KT 160V220 9999 SCT015 OVC083 03/02 Q1007 TEMPO -RA RMK BLU
  • 280445Z 18012KT 9999 SCT017 OVC083 03/02 Q1007 TEMPO -RA RMK BLU
  • 280415Z 18012KT 150V210 8000 NSC 03/02 Q1007 NOSIG RMK BLU
  • 280345Z 19010KT 8000 NSC 02/02 Q1007 NOSIG RMK BLU
  • 280315Z 17008KT 130V240 6000 NSC 01/01 Q1008 NOSIG RMK WHT

TAF TAF LHPA
Valide du 28 à 06h jusqu'au 29 à 06h UTC


280515Z 2806/2906 18010KT 8000 BKN030 OVC080
TEMPO 2806/2812 18015G25KT
PROB30
TEMPO 2806/2809 3000 RA BR SCT003 BKN020 OVC050
BECMG 2814/2816 32014G24KT 6000 RA SHRA BKN020 OVC050
TEMPO 2816/2819 34018G38KT
BECMG 2819/2822 22008KT CAVOK



MET'MAP, la Météo Aéronautique d'un coup d'oeil ! - Copyright ORBIFLY Décembre 2007 - Disclaimer

ORBIFLY MET'MAP TEAM :

Programmation & Développement : Alexandra Zaïnal
Sur une idée originale de : Baudouin d'Aumeries
Assistance à la programmation : Marc-Olivier Méhu
Soutien technique & logistique : Manuel Goepfert

Contact : metmap@orbifly.com




SOURCES & CREDITS :

   NOAA